sensor_id;sensor_type;location;lat;lon;timestamp;pressure;altitude;pressure_sealevel;temperature;humidity
7668;BME280;3876;42.204;24.686;2022-08-25T00:00:35;99053.00;;;22.66;100.00
7668;BME280;3876;42.204;24.686;2022-08-25T00:03:02;99044.50;;;22.53;100.00
7668;BME280;3876;42.204;24.686;2022-08-25T00:05:29;99043.25;;;22.47;100.00
7668;BME280;3876;42.204;24.686;2022-08-25T00:07:57;99043.25;;;22.47;100.00
7668;BME280;3876;42.204;24.686;2022-08-25T00:10:23;99047.91;;;22.44;100.00
7668;BME280;3876;42.204;24.686;2022-08-25T00:12:51;99048.16;;;22.41;100.00
7668;BME280;3876;42.204;24.686;2022-08-25T00:15:19;99031.94;;;22.37;100.00
7668;BME280;3876;42.204;24.686;2022-08-25T00:17:46;99052.75;;;22.48;100.00
7668;BME280;3876;42.204;24.686;2022-08-25T00:20:14;99044.09;;;22.48;100.00
7668;BME280;3876;42.204;24.686;2022-08-25T00:22:41;99053.31;;;22.52;100.00
7668;BME280;3876;42.204;24.686;2022-08-25T00:25:08;99044.56;;;22.32;100.00
7668;BME280;3876;42.204;24.686;2022-08-25T00:27:35;99092.91;;;22.47;100.00
7668;BME280;3876;42.204;24.686;2022-08-25T00:30:04;99092.31;;;22.44;100.00
7668;BME280;3876;42.204;24.686;2022-08-25T00:32:32;99088.41;;;22.59;100.00
7668;BME280;3876;42.204;24.686;2022-08-25T00:34:59;99090.84;;;22.51;100.00
7668;BME280;3876;42.204;24.686;2022-08-25T00:37:27;99085.69;;;22.40;100.00
7668;BME280;3876;42.204;24.686;2022-08-25T00:39:53;99077.16;;;22.38;100.00
7668;BME280;3876;42.204;24.686;2022-08-25T00:42:21;99070.41;;;22.35;100.00
7668;BME280;3876;42.204;24.686;2022-08-25T00:44:49;99052.25;;;22.34;100.00
7668;BME280;3876;42.204;24.686;2022-08-25T00:47:16;99042.56;;;22.25;100.00
7668;BME280;3876;42.204;24.686;2022-08-25T00:49:47;99031.56;;;22.21;100.00
7668;BME280;3876;42.204;24.686;2022-08-25T00:52:18;99026.03;;;22.15;100.00
7668;BME280;3876;42.204;24.686;2022-08-25T00:54:49;99036.03;;;22.10;100.00
7668;BME280;3876;42.204;24.686;2022-08-25T00:57:20;99033.69;;;22.07;100.00
7668;BME280;3876;42.204;24.686;2022-08-25T00:59:48;99036.16;;;22.08;100.00
7668;BME280;3876;42.204;24.686;2022-08-25T01:02:15;99037.22;;;22.06;100.00
7668;BME280;3876;42.204;24.686;2022-08-25T01:04:44;99033.91;;;22.04;100.00
7668;BME280;3876;42.204;24.686;2022-08-25T01:07:12;99036.28;;;22.07;100.00
7668;BME280;3876;42.204;24.686;2022-08-25T01:09:40;99037.66;;;22.11;100.00
7668;BME280;3876;42.204;24.686;2022-08-25T01:12:08;99019.28;;;22.12;100.00
7668;BME280;3876;42.204;24.686;2022-08-25T01:14:36;99026.28;;;22.12;100.00
7668;BME280;3876;42.204;24.686;2022-08-25T01:17:03;99021.56;;;22.06;100.00
7668;BME280;3876;42.204;24.686;2022-08-25T01:19:31;99019.66;;;22.08;100.00
7668;BME280;3876;42.204;24.686;2022-08-25T01:21:59;99017.75;;;22.10;100.00
7668;BME280;3876;42.204;24.686;2022-08-25T01:24:31;99013.03;;;22.04;100.00
7668;BME280;3876;42.204;24.686;2022-08-25T01:27:01;99026.03;;;22.15;100.00
7668;BME280;3876;42.204;24.686;2022-08-25T01:29:29;99026.72;;;22.17;100.00
7668;BME280;3876;42.204;24.686;2022-08-25T01:31:58;99029.31;;;22.17;100.00
7668;BME280;3876;42.204;24.686;2022-08-25T01:34:27;99037.88;;;22.19;100.00
7668;BME280;3876;42.204;24.686;2022-08-25T01:36:55;99023.84;;;22.20;100.00
7668;BME280;3876;42.204;24.686;2022-08-25T01:39:26;99029.91;;;22.20;100.00
7668;BME280;3876;42.204;24.686;2022-08-25T01:42:03;99021.94;;;22.22;100.00
7668;BME280;3876;42.204;24.686;2022-08-25T01:44:35;99021.94;;;22.22;100.00
7668;BME280;3876;42.204;24.686;2022-08-25T01:47:03;99024.56;;;22.22;100.00
7668;BME280;3876;42.204;24.686;2022-08-25T01:49:30;99022.91;;;22.21;100.00
7668;BME280;3876;42.204;24.686;2022-08-25T01:52:01;99019.06;;;22.25;100.00
7668;BME280;3876;42.204;24.686;2022-08-25T01:54:32;99023.34;;;22.26;100.00
7668;BME280;3876;42.204;24.686;2022-08-25T01:56:59;99018.13;;;22.26;100.00
7668;BME280;3876;42.204;24.686;2022-08-25T01:59:26;98998.81;;;22.17;100.00
7668;BME280;3876;42.204;24.686;2022-08-25T02:01:53;99018.50;;;22.21;100.00
7668;BME280;3876;42.204;24.686;2022-08-25T02:04:20;99010.78;;;22.20;100.00
7668;BME280;3876;42.204;24.686;2022-08-25T02:06:47;99013.97;;;22.23;100.00
7668;BME280;3876;42.204;24.686;2022-08-25T02:09:15;99006.28;;;22.22;100.00
7668;BME280;3876;42.204;24.686;2022-08-25T02:11:45;99005.06;;;22.26;100.00
7668;BME280;3876;42.204;24.686;2022-08-25T02:14:14;99004.50;;;22.22;100.00
7668;BME280;3876;42.204;24.686;2022-08-25T02:16:44;98981.31;;;22.08;100.00
7668;BME280;3876;42.204;24.686;2022-08-25T02:19:12;98993.16;;;22.12;100.00
7668;BME280;3876;42.204;24.686;2022-08-25T02:21:40;98987.50;;;22.07;100.00
7668;BME280;3876;42.204;24.686;2022-08-25T02:24:07;98981.84;;;22.02;100.00
7668;BME280;3876;42.204;24.686;2022-08-25T02:26:35;98974.63;;;21.94;100.00
7668;BME280;3876;42.204;24.686;2022-08-25T02:29:04;98981.41;;;21.97;100.00
7668;BME280;3876;42.204;24.686;2022-08-25T02:31:31;98983.31;;;21.95;100.00
7668;BME280;3876;42.204;24.686;2022-08-25T02:33:58;98976.22;;;21.86;100.00
7668;BME280;3876;42.204;24.686;2022-08-25T02:36:26;98972.91;;;21.84;100.00
7668;BME280;3876;42.204;24.686;2022-08-25T02:38:53;98951.97;;;21.74;100.00
7668;BME280;3876;42.204;24.686;2022-08-25T02:41:22;98976.81;;;21.89;100.00
7668;BME280;3876;42.204;24.686;2022-08-25T02:43:50;98975.03;;;21.90;100.00
7668;BME280;3876;42.204;24.686;2022-08-25T02:46:19;98973.13;;;21.92;100.00
7668;BME280;3876;42.204;24.686;2022-08-25T02:48:46;98972.03;;;21.94;100.00
7668;BME280;3876;42.204;24.686;2022-08-25T02:51:14;98954.38;;;21.87;100.00
7668;BME280;3876;42.204;24.686;2022-08-25T02:53:41;98963.78;;;21.89;100.00
7668;BME280;3876;42.204;24.686;2022-08-25T02:56:11;98966.59;;;21.86;100.00
7668;BME280;3876;42.204;24.686;2022-08-25T02:58:40;98959.47;;;21.88;100.00
7668;BME280;3876;42.204;24.686;2022-08-25T03:01:07;98948.59;;;21.83;100.00
7668;BME280;3876;42.204;24.686;2022-08-25T03:03:38;98931.78;;;21.76;100.00
7668;BME280;3876;42.204;24.686;2022-08-25T03:06:06;98932.94;;;21.83;100.00
7668;BME280;3876;42.204;24.686;2022-08-25T03:08:33;98945.25;;;21.92;100.00
7668;BME280;3876;42.204;24.686;2022-08-25T03:11:01;98949.94;;;21.98;100.00
7668;BME280;3876;42.204;24.686;2022-08-25T03:13:27;98958.66;;;22.09;100.00
7668;BME280;3876;42.204;24.686;2022-08-25T03:15:54;98961.44;;;22.17;100.00
7668;BME280;3876;42.204;24.686;2022-08-25T03:18:21;98957.25;;;22.25;100.00
7668;BME280;3876;42.204;24.686;2022-08-25T03:20:50;98949.97;;;22.29;100.00
7668;BME280;3876;42.204;24.686;2022-08-25T03:23:16;98947.94;;;22.32;100.00
7668;BME280;3876;42.204;24.686;2022-08-25T03:25:44;98949.19;;;22.38;100.00
7668;BME280;3876;42.204;24.686;2022-08-25T03:28:28;98959.09;;;22.44;100.00
7668;BME280;3876;42.204;24.686;2022-08-25T03:30:57;98957.06;;;22.47;100.00
7668;BME280;3876;42.204;24.686;2022-08-25T03:33:25;98947.00;;;22.43;100.00
7668;BME280;3876;42.204;24.686;2022-08-25T03:38:20;98954.03;;;22.52;100.00
7668;BME280;3876;42.204;24.686;2022-08-25T03:40:48;98965.88;;;22.56;100.00
7668;BME280;3876;42.204;24.686;2022-08-25T03:43:15;98945.66;;;22.48;100.00
7668;BME280;3876;42.204;24.686;2022-08-25T03:45:43;98957.09;;;22.57;100.00
7668;BME280;3876;42.204;24.686;2022-08-25T03:48:10;98966.31;;;22.61;100.00
7668;BME280;3876;42.204;24.686;2022-08-25T03:50:43;98972.88;;;22.56;100.00
7668;BME280;3876;42.204;24.686;2022-08-25T03:53:11;98972.31;;;22.52;100.00
7668;BME280;3876;42.204;24.686;2022-08-25T03:55:39;98966.66;;;22.47;100.00
7668;BME280;3876;42.204;24.686;2022-08-25T03:58:06;98963.06;;;22.38;100.00
7668;BME280;3876;42.204;24.686;2022-08-25T04:00:33;98950.66;;;22.31;100.00
7668;BME280;3876;42.204;24.686;2022-08-25T04:03:00;98981.22;;;22.40;100.00
7668;BME280;3876;42.204;24.686;2022-08-25T04:05:27;98978.84;;;22.37;100.00
7668;BME280;3876;42.204;24.686;2022-08-25T04:07:54;98970.34;;;22.35;100.00
7668;BME280;3876;42.204;24.686;2022-08-25T04:10:22;98974.84;;;22.33;100.00
7668;BME280;3876;42.204;24.686;2022-08-25T04:12:49;98977.47;;;22.33;100.00
7668;BME280;3876;42.204;24.686;2022-08-25T04:15:16;98970.88;;;22.29;100.00
7668;BME280;3876;42.204;24.686;2022-08-25T04:17:43;98969.47;;;22.25;100.00
7668;BME280;3876;42.204;24.686;2022-08-25T04:20:11;98969.78;;;22.11;100.00
7668;BME280;3876;42.204;24.686;2022-08-25T04:22:38;98967.69;;;22.05;100.00
7668;BME280;3876;42.204;24.686;2022-08-25T04:25:06;98947.63;;;21.84;100.00
7668;BME280;3876;42.204;24.686;2022-08-25T04:27:35;98944.22;;;21.84;100.00
7668;BME280;3876;42.204;24.686;2022-08-25T04:30:03;98944.22;;;21.84;100.00
7668;BME280;3876;42.204;24.686;2022-08-25T04:32:30;98965.97;;;21.94;100.00
7668;BME280;3876;42.204;24.686;2022-08-25T04:34:57;98957.19;;;21.95;100.00
7668;BME280;3876;42.204;24.686;2022-08-25T04:37:24;98959.56;;;21.98;100.00
7668;BME280;3876;42.204;24.686;2022-08-25T04:39:51;98955.16;;;21.98;100.00
7668;BME280;3876;42.204;24.686;2022-08-25T04:42:18;98961.28;;;22.09;100.00
7668;BME280;3876;42.204;24.686;2022-08-25T04:44:47;98967.63;;;22.16;100.00
7668;BME280;3876;42.204;24.686;2022-08-25T04:47:14;98967.81;;;22.24;100.00
7668;BME280;3876;42.204;24.686;2022-08-25T04:49:41;98972.22;;;22.33;100.00
7668;BME280;3876;42.204;24.686;2022-08-25T04:52:08;98964.69;;;22.39;100.00
7668;BME280;3876;42.204;24.686;2022-08-25T04:54:35;98959.97;;;22.54;100.00
7668;BME280;3876;42.204;24.686;2022-08-25T04:57:02;98961.53;;;22.66;100.00
7668;BME280;3876;42.204;24.686;2022-08-25T04:59:29;98960.06;;;22.73;100.00
7668;BME280;3876;42.204;24.686;2022-08-25T05:01:58;98945.22;;;22.74;100.00
7668;BME280;3876;42.204;24.686;2022-08-25T05:04:26;98945.50;;;22.80;100.00
7668;BME280;3876;42.204;24.686;2022-08-25T05:06:53;98958.19;;;23.04;100.00
7668;BME280;3876;42.204;24.686;2022-08-25T05:09:20;98946.66;;;23.16;100.00
7668;BME280;3876;42.204;24.686;2022-08-25T05:11:47;98934.81;;;23.22;100.00
7668;BME280;3876;42.204;24.686;2022-08-25T05:14:14;98935.94;;;23.38;100.00
7668;BME280;3876;42.204;24.686;2022-08-25T05:16:45;98931.53;;;23.39;100.00
7668;BME280;3876;42.204;24.686;2022-08-25T05:19:14;98942.00;;;23.58;100.00
7668;BME280;3876;42.204;24.686;2022-08-25T05:21:41;98934.81;;;23.70;100.00
7668;BME280;3876;42.204;24.686;2022-08-25T05:24:08;98940.31;;;23.76;100.00
7668;BME280;3876;42.204;24.686;2022-08-25T05:26:35;98945.00;;;23.82;100.00
7668;BME280;3876;42.204;24.686;2022-08-25T05:29:03;98947.47;;;23.93;100.00
7668;BME280;3876;42.204;24.686;2022-08-25T05:31:31;98951.97;;;24.01;100.00
7668;BME280;3876;42.204;24.686;2022-08-25T05:33:58;98943.72;;;24.05;100.00
7668;BME280;3876;42.204;24.686;2022-08-25T05:36:27;98947.16;;;24.06;100.00
7668;BME280;3876;42.204;24.686;2022-08-25T05:38:55;98938.09;;;24.00;100.00
7668;BME280;3876;42.204;24.686;2022-08-25T05:41:26;98942.03;;;24.14;100.00
7668;BME280;3876;42.204;24.686;2022-08-25T05:43:54;98942.81;;;24.34;100.00
7668;BME280;3876;42.204;24.686;2022-08-25T05:46:22;98915.25;;;24.30;100.00
7668;BME280;3876;42.204;24.686;2022-08-25T05:48:49;98943.41;;;24.55;100.00
7668;BME280;3876;42.204;24.686;2022-08-25T05:51:17;98946.38;;;24.70;100.00
7668;BME280;3876;42.204;24.686;2022-08-25T05:53:47;98951.56;;;24.79;100.00
7668;BME280;3876;42.204;24.686;2022-08-25T05:56:14;98947.22;;;24.97;100.00
7668;BME280;3876;42.204;24.686;2022-08-25T05:58:42;98938.34;;;24.98;100.00
7668;BME280;3876;42.204;24.686;2022-08-25T06:01:09;98939.41;;;25.05;100.00
7668;BME280;3876;42.204;24.686;2022-08-25T06:04:02;98933.66;;;25.20;100.00
7668;BME280;3876;42.204;24.686;2022-08-25T06:06:29;98936.34;;;25.28;100.00
7668;BME280;3876;42.204;24.686;2022-08-25T06:08:57;98927.50;;;25.29;100.00
7668;BME280;3876;42.204;24.686;2022-08-25T06:11:24;98923.75;;;25.31;100.00
7668;BME280;3876;42.204;24.686;2022-08-25T06:13:52;98925.94;;;25.53;100.00
7668;BME280;3876;42.204;24.686;2022-08-25T06:16:18;98922.25;;;25.64;100.00
7668;BME280;3876;42.204;24.686;2022-08-25T06:18:45;98916.16;;;25.64;100.00
7668;BME280;3876;42.204;24.686;2022-08-25T06:21:13;98917.31;;;25.61;100.00
7668;BME280;3876;42.204;24.686;2022-08-25T06:23:41;98928.22;;;25.74;100.00
7668;BME280;3876;42.204;24.686;2022-08-25T06:26:10;98923.72;;;25.84;100.00
7668;BME280;3876;42.204;24.686;2022-08-25T06:28:37;98904.91;;;25.71;100.00
7668;BME280;3876;42.204;24.686;2022-08-25T06:31:04;98921.44;;;25.89;100.00
7668;BME280;3876;42.204;24.686;2022-08-25T06:33:31;98923.50;;;26.03;100.00
7668;BME280;3876;42.204;24.686;2022-08-25T06:35:58;98927.81;;;26.13;100.00
7668;BME280;3876;42.204;24.686;2022-08-25T06:38:25;98926.97;;;26.30;100.00
7668;BME280;3876;42.204;24.686;2022-08-25T06:40:52;98927.69;;;26.48;100.00
7668;BME280;3876;42.204;24.686;2022-08-25T06:43:23;98923.13;;;26.58;100.00
7668;BME280;3876;42.204;24.686;2022-08-25T06:45:50;98923.19;;;26.74;100.00
7668;BME280;3876;42.204;24.686;2022-08-25T06:48:17;98931.66;;;26.94;100.00
7668;BME280;3876;42.204;24.686;2022-08-25T06:50:44;98922.97;;;27.09;100.00
7668;BME280;3876;42.204;24.686;2022-08-25T06:53:11;98907.50;;;27.23;100.00
7668;BME280;3876;42.204;24.686;2022-08-25T06:55:38;98915.94;;;27.50;98.52
7668;BME280;3876;42.204;24.686;2022-08-25T06:58:06;98920.03;;;27.69;97.72
7668;BME280;3876;42.204;24.686;2022-08-25T07:00:35;98918.91;;;27.72;95.70
7668;BME280;3876;42.204;24.686;2022-08-25T07:03:02;98912.13;;;27.77;95.54
7668;BME280;3876;42.204;24.686;2022-08-25T07:05:29;98912.94;;;27.86;95.92
7668;BME280;3876;42.204;24.686;2022-08-25T07:07:56;98920.47;;;28.05;94.46
7668;BME280;3876;42.204;24.686;2022-08-25T07:10:23;98918.00;;;28.20;94.99
7668;BME280;3876;42.204;24.686;2022-08-25T07:12:50;98922.19;;;28.45;93.82
7668;BME280;3876;42.204;24.686;2022-08-25T07:15:17;98912.63;;;28.44;90.68
7668;BME280;3876;42.204;24.686;2022-08-25T07:17:45;98913.91;;;28.56;92.58
7668;BME280;3876;42.204;24.686;2022-08-25T07:20:12;98910.34;;;28.80;91.06
7668;BME280;3876;42.204;24.686;2022-08-25T07:22:40;98900.94;;;28.77;92.13
7668;BME280;3876;42.204;24.686;2022-08-25T07:25:07;98897.59;;;28.91;91.63
7668;BME280;3876;42.204;24.686;2022-08-25T07:27:36;98887.63;;;29.01;88.82
7668;BME280;3876;42.204;24.686;2022-08-25T07:30:05;98900.69;;;29.17;87.76
7668;BME280;3876;42.204;24.686;2022-08-25T07:32:32;98905.81;;;29.42;88.31
7668;BME280;3876;42.204;24.686;2022-08-25T07:35:00;98906.97;;;29.62;86.32
7668;BME280;3876;42.204;24.686;2022-08-25T07:37:46;98899.50;;;29.80;86.96
7668;BME280;3876;42.204;24.686;2022-08-25T07:40:16;98912.72;;;29.80;82.63
7668;BME280;3876;42.204;24.686;2022-08-25T07:42:43;98910.66;;;29.90;81.27
7668;BME280;3876;42.204;24.686;2022-08-25T07:45:11;98916.88;;;29.97;79.87
7668;BME280;3876;42.204;24.686;2022-08-25T07:47:38;98913.69;;;29.87;80.80
7668;BME280;3876;42.204;24.686;2022-08-25T07:50:08;98912.69;;;29.88;84.07
7668;BME280;3876;42.204;24.686;2022-08-25T07:52:36;98913.94;;;29.92;78.44
7668;BME280;3876;42.204;24.686;2022-08-25T07:55:03;98912.06;;;30.01;81.09
7668;BME280;3876;42.204;24.686;2022-08-25T07:57:32;98911.94;;;30.09;79.07
7668;BME280;3876;42.204;24.686;2022-08-25T07:59:59;98912.78;;;30.24;80.78
7668;BME280;3876;42.204;24.686;2022-08-25T08:02:26;98921.34;;;30.41;78.72
7668;BME280;3876;42.204;24.686;2022-08-25T08:04:53;98926.19;;;30.52;80.30
7668;BME280;3876;42.204;24.686;2022-08-25T08:07:23;98917.78;;;30.63;78.93
7668;BME280;3876;42.204;24.686;2022-08-25T08:09:50;98921.22;;;30.63;76.75
7668;BME280;3876;42.204;24.686;2022-08-25T08:12:18;98921.31;;;30.70;77.04
7668;BME280;3876;42.204;24.686;2022-08-25T08:14:44;98932.19;;;30.75;79.22
7668;BME280;3876;42.204;24.686;2022-08-25T08:17:11;98932.72;;;30.85;76.99
7668;BME280;3876;42.204;24.686;2022-08-25T08:19:38;98926.94;;;30.96;74.10
7668;BME280;3876;42.204;24.686;2022-08-25T08:22:05;98928.84;;;31.02;72.13
7668;BME280;3876;42.204;24.686;2022-08-25T08:24:34;98929.84;;;30.87;70.12
7668;BME280;3876;42.204;24.686;2022-08-25T08:27:04;98918.63;;;30.99;73.45
7668;BME280;3876;42.204;24.686;2022-08-25T08:29:32;98933.25;;;30.95;66.64
7668;BME280;3876;42.204;24.686;2022-08-25T08:31:59;98929.25;;;31.20;60.96
7668;BME280;3876;42.204;24.686;2022-08-25T08:34:27;98916.63;;;31.44;64.12
7668;BME280;3876;42.204;24.686;2022-08-25T08:36:54;98924.56;;;31.65;60.07
7668;BME280;3876;42.204;24.686;2022-08-25T08:39:21;98912.41;;;31.77;59.47
7668;BME280;3876;42.204;24.686;2022-08-25T08:41:56;98908.19;;;32.10;59.49
7668;BME280;3876;42.204;24.686;2022-08-25T08:44:57;98917.28;;;32.36;59.14
7668;BME280;3876;42.204;24.686;2022-08-25T08:47:38;98913.28;;;32.53;59.49
7668;BME280;3876;42.204;24.686;2022-08-25T08:50:17;98914.13;;;32.53;54.54
7668;BME280;3876;42.204;24.686;2022-08-25T08:52:57;98915.78;;;32.61;55.25
7668;BME280;3876;42.204;24.686;2022-08-25T08:55:31;98925.41;;;32.68;57.79
7668;BME280;3876;42.204;24.686;2022-08-25T08:58:03;98917.00;;;32.58;58.31
7668;BME280;3876;42.204;24.686;2022-08-25T09:00:31;98909.28;;;32.70;60.93
7668;BME280;3876;42.204;24.686;2022-08-25T09:03:04;98919.53;;;32.73;57.97
7668;BME280;3876;42.204;24.686;2022-08-25T09:05:39;98917.47;;;32.75;62.88
7668;BME280;3876;42.204;24.686;2022-08-25T09:08:11;98908.50;;;32.76;60.39
7668;BME280;3876;42.204;24.686;2022-08-25T09:10:48;98919.94;;;32.83;58.61
7668;BME280;3876;42.204;24.686;2022-08-25T09:13:24;98918.50;;;32.81;59.53
7668;BME280;3876;42.204;24.686;2022-08-25T09:16:01;98913.81;;;32.76;63.34
7668;BME280;3876;42.204;24.686;2022-08-25T09:18:53;98903.47;;;32.47;61.42
7668;BME280;3876;42.204;24.686;2022-08-25T09:21:29;98908.72;;;32.34;62.07
7668;BME280;3876;42.204;24.686;2022-08-25T09:24:23;98906.47;;;32.31;61.80
7668;BME280;3876;42.204;24.686;2022-08-25T09:27:05;98909.28;;;32.29;63.70
7668;BME280;3876;42.204;24.686;2022-08-25T09:29:46;98892.38;;;32.30;64.37
7668;BME280;3876;42.204;24.686;2022-08-25T09:32:16;98904.47;;;32.46;61.82
7668;BME280;3876;42.204;24.686;2022-08-25T09:34:44;98908.41;;;32.56;57.01
7668;BME280;3876;42.204;24.686;2022-08-25T09:37:13;98902.38;;;32.75;60.24
7668;BME280;3876;42.204;24.686;2022-08-25T09:39:40;98896.31;;;33.01;61.47
7668;BME280;3876;42.204;24.686;2022-08-25T09:42:07;98904.75;;;33.18;58.87
7668;BME280;3876;42.204;24.686;2022-08-25T09:44:39;98897.56;;;33.18;60.92
7668;BME280;3876;42.204;24.686;2022-08-25T09:47:18;98891.06;;;33.21;56.24
7668;BME280;3876;42.204;24.686;2022-08-25T09:49:48;98893.06;;;33.12;58.37
7668;BME280;3876;42.204;24.686;2022-08-25T09:52:20;98881.72;;;32.71;58.61
7668;BME280;3876;42.204;24.686;2022-08-25T09:54:48;98865.91;;;32.50;59.59
7668;BME280;3876;42.204;24.686;2022-08-25T09:57:32;98871.38;;;32.42;58.59
7668;BME280;3876;42.204;24.686;2022-08-25T10:00:17;98867.13;;;32.54;63.14
7668;BME280;3876;42.204;24.686;2022-08-25T10:03:03;98857.00;;;32.70;59.96
7668;BME280;3876;42.204;24.686;2022-08-25T10:05:30;98861.53;;;32.83;57.45
7668;BME280;3876;42.204;24.686;2022-08-25T10:08:01;98861.50;;;32.70;54.65
7668;BME280;3876;42.204;24.686;2022-08-25T10:10:31;98858.78;;;32.50;55.92
7668;BME280;3876;42.204;24.686;2022-08-25T10:12:59;98859.44;;;32.59;56.65
7668;BME280;3876;42.204;24.686;2022-08-25T10:15:32;98850.88;;;32.63;60.13
7668;BME280;3876;42.204;24.686;2022-08-25T10:18:21;98847.19;;;32.58;58.47
7668;BME280;3876;42.204;24.686;2022-08-25T10:21:03;98844.34;;;32.59;59.92
7668;BME280;3876;42.204;24.686;2022-08-25T10:23:32;98844.34;;;32.66;59.35
7668;BME280;3876;42.204;24.686;2022-08-25T10:26:04;98840.28;;;32.76;57.06
7668;BME280;3876;42.204;24.686;2022-08-25T10:28:40;98838.25;;;32.85;57.39
7668;BME280;3876;42.204;24.686;2022-08-25T10:31:18;98832.13;;;32.78;55.85
7668;BME280;3876;42.204;24.686;2022-08-25T10:33:58;98835.78;;;32.77;55.38
7668;BME280;3876;42.204;24.686;2022-08-25T10:36:38;98842.75;;;32.78;59.15
7668;BME280;3876;42.204;24.686;2022-08-25T10:39:18;98836.03;;;32.95;57.49
7668;BME280;3876;42.204;24.686;2022-08-25T10:41:59;98833.00;;;33.11;54.55
7668;BME280;3876;42.204;24.686;2022-08-25T10:44:33;98821.75;;;33.09;55.64
7668;BME280;3876;42.204;24.686;2022-08-25T10:47:43;98827.69;;;33.38;55.36
7668;BME280;3876;42.204;24.686;2022-08-25T10:50:22;98823.16;;;33.58;58.57
7668;BME280;3876;42.204;24.686;2022-08-25T10:53:21;98826.66;;;33.65;50.77
7668;BME280;3876;42.204;24.686;2022-08-25T10:55:59;98822.31;;;33.77;50.60
7668;BME280;3876;42.204;24.686;2022-08-25T10:58:42;98819.88;;;33.82;56.10
7668;BME280;3876;42.204;24.686;2022-08-25T11:01:18;98816.59;;;33.80;50.23
7668;BME280;3876;42.204;24.686;2022-08-25T11:03:56;98823.94;;;33.91;46.99
7668;BME280;3876;42.204;24.686;2022-08-25T11:06:31;98812.44;;;33.97;46.58
7668;BME280;3876;42.204;24.686;2022-08-25T11:09:04;98812.81;;;34.14;50.98
7668;BME280;3876;42.204;24.686;2022-08-25T11:11:37;98812.81;;;34.20;50.29
7668;BME280;3876;42.204;24.686;2022-08-25T11:14:11;98817.25;;;34.33;46.23
7668;BME280;3876;42.204;24.686;2022-08-25T11:16:44;98814.78;;;34.32;47.81
7668;BME280;3876;42.204;24.686;2022-08-25T11:19:19;98793.59;;;34.18;49.63
7668;BME280;3876;42.204;24.686;2022-08-25T11:21:51;98817.22;;;34.40;49.10
7668;BME280;3876;42.204;24.686;2022-08-25T11:24:40;98814.38;;;34.35;46.26
7668;BME280;3876;42.204;24.686;2022-08-25T11:27:12;98802.16;;;34.20;46.77
7668;BME280;3876;42.204;24.686;2022-08-25T11:29:57;98819.09;;;34.33;44.99
7668;BME280;3876;42.204;24.686;2022-08-25T11:32:26;98810.66;;;34.36;48.21
7668;BME280;3876;42.204;24.686;2022-08-25T11:35:00;98795.19;;;34.19;48.54
7668;BME280;3876;42.204;24.686;2022-08-25T11:37:28;98799.66;;;34.25;53.47
7668;BME280;3876;42.204;24.686;2022-08-25T11:40:10;98803.91;;;34.40;45.61
7668;BME280;3876;42.204;24.686;2022-08-25T11:42:55;98808.22;;;34.41;46.52
7668;BME280;3876;42.204;24.686;2022-08-25T11:45:41;98809.44;;;34.32;45.85
7668;BME280;3876;42.204;24.686;2022-08-25T11:48:20;98808.69;;;34.24;45.55
7668;BME280;3876;42.204;24.686;2022-08-25T11:51:00;98797.78;;;34.33;49.37
7668;BME280;3876;42.204;24.686;2022-08-25T11:53:30;98795.91;;;34.40;48.95
7668;BME280;3876;42.204;24.686;2022-08-25T11:56:00;98800.22;;;34.41;47.99
7668;BME280;3876;42.204;24.686;2022-08-25T11:58:34;98796.34;;;34.37;48.73
7668;BME280;3876;42.204;24.686;2022-08-25T12:01:05;98798.88;;;34.25;45.14
7668;BME280;3876;42.204;24.686;2022-08-25T12:03:50;98778.59;;;33.73;45.59
7668;BME280;3876;42.204;24.686;2022-08-25T12:06:29;98801.63;;;33.92;46.10
7668;BME280;3876;42.204;24.686;2022-08-25T12:09:18;98799.34;;;34.02;46.32
7668;BME280;3876;42.204;24.686;2022-08-25T12:11:53;98800.56;;;34.00;49.31
7668;BME280;3876;42.204;24.686;2022-08-25T12:14:42;98798.94;;;34.05;49.22
7668;BME280;3876;42.204;24.686;2022-08-25T12:17:24;98802.81;;;34.03;45.91
7668;BME280;3876;42.204;24.686;2022-08-25T12:19:57;98796.84;;;34.07;44.44
7668;BME280;3876;42.204;24.686;2022-08-25T12:22:53;98791.53;;;34.14;48.68
7668;BME280;3876;42.204;24.686;2022-08-25T12:25:38;98794.41;;;34.12;45.95
7668;BME280;3876;42.204;24.686;2022-08-25T12:28:40;98786.03;;;34.09;46.19
7668;BME280;3876;42.204;24.686;2022-08-25T12:31:27;98767.81;;;33.99;45.41
7668;BME280;3876;42.204;24.686;2022-08-25T12:34:09;98786.81;;;34.16;48.72
7668;BME280;3876;42.204;24.686;2022-08-25T12:36:54;98789.44;;;34.22;49.89
7668;BME280;3876;42.204;24.686;2022-08-25T12:39:29;98791.09;;;34.23;48.34
7668;BME280;3876;42.204;24.686;2022-08-25T12:42:01;98780.63;;;34.22;46.48
7668;BME280;3876;42.204;24.686;2022-08-25T12:44:43;98782.50;;;34.21;47.40
7668;BME280;3876;42.204;24.686;2022-08-25T12:47:26;98774.69;;;34.26;46.69
7668;BME280;3876;42.204;24.686;2022-08-25T12:50:28;98774.84;;;34.32;46.06
7668;BME280;3876;42.204;24.686;2022-08-25T12:53:06;98787.38;;;34.31;47.10
7668;BME280;3876;42.204;24.686;2022-08-25T12:55:36;98782.44;;;34.35;45.85
7668;BME280;3876;42.204;24.686;2022-08-25T12:58:03;98777.09;;;34.41;44.46
7668;BME280;3876;42.204;24.686;2022-08-25T13:00:36;98778.31;;;34.39;42.88
7668;BME280;3876;42.204;24.686;2022-08-25T13:03:29;98781.66;;;34.27;44.10
7668;BME280;3876;42.204;24.686;2022-08-25T13:06:25;98775.94;;;34.24;43.69
7668;BME280;3876;42.204;24.686;2022-08-25T13:12:06;98771.13;;;33.95;47.60
7668;BME280;3876;42.204;24.686;2022-08-25T13:14:37;98754.44;;;33.74;49.92
7668;BME280;3876;42.204;24.686;2022-08-25T13:17:04;98769.22;;;33.44;50.82
7668;BME280;3876;42.204;24.686;2022-08-25T13:19:31;98775.97;;;33.27;48.42
7668;BME280;3876;42.204;24.686;2022-08-25T13:22:00;98778.16;;;32.58;50.63
7668;BME280;3876;42.204;24.686;2022-08-25T13:24:31;98770.53;;;31.81;54.95
7668;BME280;3876;42.204;24.686;2022-08-25T13:27:03;98777.78;;;31.66;56.53
7668;BME280;3876;42.204;24.686;2022-08-25T13:29:32;98773.31;;;31.39;59.48
7668;BME280;3876;42.204;24.686;2022-08-25T13:32:01;98771.56;;;30.97;60.52